AirNav   Air Wisconsin pilot careers
 
 1276 users online  

7F7 Clifton Municipal Airport/Isenhower Field
Clifton, Texas, USA

GOING TO CLIFTON?


FAA INFORMATION EFFECTIVE 06 DECEMBER 2018

Location

FAA Identifier: 7F7
Lat/Long: 31-49-01.6800N / 097-34-10.4500W
31-49.028000N / 097-34.174167W
31.8171333 / -97.5695694
(estimated)
Elevation: 760 ft. / 232 m (estimated)
Variation: 07E (1985)
From city: 2 miles N of CLIFTON, TX
Time zone: UTC -6 (UTC -5 during Daylight Saving Time)
Zip code: 76634

Airport Operations

Airport use: Open to the public
Activation date: 05/1966
Control tower: no
ARTCC: FORT WORTH CENTER
FSS: FORT WORTH FLIGHT SERVICE STATION
NOTAMs facility: FTW (NOTAM-D service available)
Attendance: MON-FRI 0900-1630
FOR ARPT ATTENDANT ON SAT & SUN CALL 254-978-0020 OR 254-253-0859; AFT HR FEE.
Wind indicator: lighted
Segmented circle: no
Lights: DUSK-DAWN. MIRL RY 14/32 PRESET LOW INTST; TO INCR INTST ACTVT - CTAF.
Beacon: white-green (lighted land airport)
Operates sunset to sunrise.

Airport Communications

CTAF/UNICOM: 122.8

Nearby radio navigation aids

VOR radial/distance  VOR name  Freq  Var
ACTr292/17.9WACO VORTAC115.3009E
JENr137/25.8GLEN ROSE VORTAC115.0006E
TPLr340/37.2TEMPLE VOR/DME110.4009E

 
NDB name  Hdg/Dist  Freq  Var  ID
ROBINSON299/31.740007EROB .-. --- -...

Airport Services

Fuel available: 100LL
Parking: hangars and tiedowns
Airframe service: MAJOR
Powerplant service: MAJOR
Bottled oxygen: HIGH

Runway Information

Runway 14/32

Dimensions: 3000 x 50 ft. / 914 x 15 m
Surface: asphalt, in fair condition
Weight bearing capacity: 
Single wheel: 13.0
Runway edge lights: medium intensity
Gradient: NW.
RUNWAY 14  RUNWAY 32
Latitude: 31-49.238333N31-48.817500N
Longitude: 097-34.326667W097-34.021667W
Elevation: 756.0 ft.748.0 ft.
Gradient: 0.3%0.3% UP
Traffic pattern: leftleft
Runway heading: 142 magnetic, 149 true322 magnetic, 329 true
Displaced threshold: no150 ft.
Markings: basic, in good conditionbasic, in good condition
Visual slope indicator: 2-light PAPI on left (3.00 degrees glide path)2-light PAPI on right (3.00 degrees glide path)
Obstructions: 160 ft. hill, 5500 ft. from runway, 33:1 slope to clear25 ft. trees, 200 ft. from runway, 56 ft. left of centerline
8 FT FENCE 190 FT FM THLD ON EXTNDD CNTRLN.

Airport Ownership and Management from official FAA records

Ownership: Publicly-owned
Owner: CITY OF CLIFTON
PO BOX 231
CLIFTON, TX 76634
Phone 254-675-8337
Manager: TIM TALLEY
PO BOX 249
CLIFTON, TX 76634
Phone 254-675-3771

Airport Operational Statistics

Aircraft based on the field: 11
Single engine airplanes: 11
    
Aircraft operations: avg 123/week *
75% local general aviation
25% transient general aviation
* for 12-month period ending 29 March 2016

Additional Remarks

STEEP DROP OFF NORTH OF RWY 14.
GRVL ON NE END OF TWY.
RY 14 HAS WATER PONDING AT END OF RY AFT HVY RAIN.
SECURITY GATE LOCKED AFTER HRS. FOR ACCESS CONTACT 254-675-6620.

Instrument Procedures

There are no published instrument procedures at 7F7.

Some nearby airports with instrument procedures:

KACT - Waco Regional Airport (21 nm SE)
KPWG - Mc Gregor Executive Airport (24 nm SE)
KCNW - TSTC Waco Airport (27 nm SE)
KINJ - Hillsboro Municipal Airport (29 nm NE)
KMNZ - Hamilton Municipal Airport (31 nm W)
 
Loc | Ops | Rwys | IFR | FBO | Links
Com | Nav | Svcs | Stats | Notes


 
Area around 7F7 (Clifton Municipal Airport/Isenhower Field)
 
Road maps at: MapQuest Bing Google
 
Aerial photo
WARNING: Photo may not be current or correct
Aerial photo of 7F7 (Clifton Municipal Airport/Isenhower Field)
Photo by Bill Gunn, Texas DOT Aviation Division
Photo taken 27-Oct-2005

Do you have a better or more recent aerial photo of Clifton Municipal Airport/Isenhower Field that you would like to share? If so, please send us your photo.

 
Sectional chart

 
Airport distance calculator
Flying to Clifton Municipal Airport/Isenhower Field? Find the distance to fly.

From to 7F7

Sunrise and sunset
Times for 14-Dec-2018
 Local
(UTC-6)
 Zulu
(UTC)
Morning civil twilight06:5612:56
Sunrise07:2313:23
Sunset17:2723:27
Evening civil twilight17:5423:54

Current date and time
Zulu (UTC)  14-Dec-2018 20:57:12
Local (UTC-6)  14-Dec-2018 14:57:12
 
METAR
KACT 
21nm SE 
142051Z 32010KT 10SM OVC018 08/04 A3002 RMK AO2 SLP165 T00830044 53004
KPWG 
25nm SE 
142014Z AUTO 32012G20KT 10SM OVC015 07/05 A3001 RMK AO2
KGOP 
26nm SW 
142035Z AUTO 29014G22KT 10SM OVC015 08/04 A3005 RMK AO2
KCNW 
28nm SE 
142050Z 31017G25KT 7SM OVC014 08/05 A3001
KINJ 
29nm NE 
142035Z AUTO 32018G28KT 10SM OVC013 08/06 A2999 RMK AO2 T00750060
KMNZ 
31nm W 
142035Z AUTO 33020G27KT 10SM OVC019 08/04 A3005 RMK AO2 T00780036
KCPT 
33nm N 
142055Z AUTO 33021G29KT 10SM OVC014 08/06 A3003 RMK AO2
KSEP 
39nm NW 
142035Z AUTO 33018G24KT 10SM OVC021 08/04 A3008 RMK AO2 T00800037
KGDJ 
40nm N 
AWOS-3 118.925 817-573-7514
142035Z AUTO 31015G24KT 10SM OVC021 09/05 A3005 RMK AO2 T00860050
KHLR 
42nm S 
142043Z AUTO 32016KT 10SM OVC015 08/04 A2998 RMK AO2 SLP154
TAF
KACT 
21nm SE 
141720Z 1418/1518 33016G26KT P6SM VCSH OVC015 FM142300 33016KT P6SM BKN025 FM150600 33013KT P6SM SKC
NOTAMs
Click for the latest NOTAMs
NOTAMs are issued by the DoD/FAA and will open in a separate window not controlled by AirNav.

 

 
 

FBO, Fuel Providers, and Aircraft Ground Support

  
 Business Name 
 
 Contact 
 
 Services / Description 
 
Fuel Prices
 
Comments
  
Clifton Aero 254-675-3771
no information available

If you are affiliated with Clifton Aero and would like to show here your services, contact info, web link, logo, and more, click here
100LL
SS $4.22 
 Updated 04-Dec-2018
 
   2 read write
SS=Self service
Update Fuel Prices
 

Would you like to see your business listed on this page?

 If your business provides an interesting product or service to pilots, flight crews, aircraft, or users of the Clifton Municipal Airport/Isenhower Field, you should consider listing it here.  To start the listing process, click on the button below
 
Add a business
 

Other Pages about Clifton Municipal Airport/Isenhower Field

Update a link
 
Copyright © AirNav, LLC. All rights reserved. Privacy Policy  Contact